Argusville, ND (58005)

2:19 PM CDT on September 26, 2016 (GMT -0500)
Harwood Triangle | | Change Station

Elev 879 ft 46.98 °N, 96.88 °W | Updated 8 minutes ago

Clear
Clear
63.2 °F
Feels Like 63.2 °F
N
7.0
Wind Variable Wind from WNW
Gusts 23.0 mph

Today
High -- | Low -- °F
--% Chance of Precip.
Yesterday
High -- | Low -- °F
Precip. -- in
Pressure 29.95 in
Visibility 10.0 miles
Clouds Clear
Dew Point 33 °F
Humidity 32%
Rainfall 0.00 in
Snow Depth Not available.
7:20 AM 7:16 PM
Waning Crescent, 17% visible
METAR KFAR 261853Z 30025G33KT 10SM CLR 18/M01 A2994 RMK AO2 PK WND 29039/1838 SLP142 T01831006
Pressure 29.95 in
Visibility 10.0 miles
Clouds Clear
Dew Point 33 °F
Humidity 32%
Rainfall 0.00 in
Snow Depth Not available.
7:20 AM 7:16 PM
Waning Crescent, 17% visible
METAR KFAR 261853Z 30025G33KT 10SM CLR 18/M01 A2994 RMK AO2 PK WND 29039/1838 SLP142 T01831006

10-Day Weather Forecast

Almanac

Astronomy

Sep. 26, 2016 Rise Set
Actual Time
Civil Twilight
Nautical Twilight
Astronomical Twilight
Moon
Length of Visible Light
Length of Day
Tomorrow will be .
, % of the Moon is Illuminated

Today's Extremes

State Highs State Lows

Community

WunderPhotos

Upload Photos

1,941,952 photos uploaded!

WunderBlog® & News

Nearby

Air Quality

  Air Quality AQ Index Pollutant
Not available.

Snow Depth

Station Depth Elevation

Earthquake Activity

City Distance Mag. Time & Date
Minimum magnitude displayed is 2.5.

Coastal Water Temperatures

Place Temperature

Stations

Nearby Weather Stations

Station Location Temp. Windchill Dew Point Humidity Wind Precip. Elev Updated Type
                   

Watches & Warnings

There are currently no watches in effect.